Time,TemperatureF,DewpointF,PressureIn,WindDirection,WindDirectionDegrees,WindSpeedMPH,WindSpeedGustMPH,Humidity,HourlyPrecipIn,Conditions,Clouds,dailyrainin,SoftwareType,DateUTC
2013-04-19 00:52:00,29.0,22.0,30.08,NW,315,13.0,16.0,76,0.00,,,0.02,,2013-04-19 05:52:00,
2013-04-19 01:02:00,28.0,21.0,30.08,WNW,290,8.0,15.0,75,0.00,,,0.02,,2013-04-19 06:02:00,
2013-04-19 01:11:00,28.0,21.0,30.08,WNW,290,8.0,15.0,75,0.00,,,0.02,,2013-04-19 06:11:00,
2013-04-19 01:22:00,28.0,21.0,30.07,NW,309,6.0,12.0,76,0.00,,,0.02,,2013-04-19 06:22:00,
2013-04-19 01:32:00,28.0,21.0,30.08,WNW,296,7.0,11.0,76,0.00,,,0.02,,2013-04-19 06:32:00,
2013-04-19 01:42:00,28.0,21.0,30.08,WNW,296,7.0,11.0,76,0.00,,,0.02,,2013-04-19 06:42:00,
2013-04-19 01:52:00,28.0,21.0,30.07,WNW,286,8.0,12.0,76,0.00,,,0.02,,2013-04-19 06:52:00,
2013-04-19 02:02:00,29.0,22.0,30.07,NW,305,7.0,14.0,75,0.00,,,0.02,,2013-04-19 07:02:00,
2013-04-19 02:12:00,29.0,22.0,30.07,NW,305,7.0,14.0,75,0.00,,,0.02,,2013-04-19 07:12:00,
2013-04-19 02:21:00,28.0,21.0,30.07,WNW,292,8.0,13.0,75,0.00,,,0.02,,2013-04-19 07:21:00,
2013-04-19 02:32:00,29.0,22.0,30.06,NW,304,5.0,10.0,76,0.00,,,0.02,,2013-04-19 07:32:00,
2013-04-19 02:42:00,29.0,22.0,30.06,NW,304,5.0,10.0,76,0.00,,,0.02,,2013-04-19 07:42:00,
2013-04-19 02:52:00,28.0,21.0,30.06,WNW,296,2.0,7.0,76,0.00,,,0.02,,2013-04-19 07:52:00,
2013-04-19 03:02:00,28.0,22.0,30.06,WNW,289,4.0,8.0,77,0.00,,,0.02,,2013-04-19 08:02:00,
2013-04-19 03:12:00,28.0,22.0,30.06,WNW,289,4.0,8.0,77,0.00,,,0.02,,2013-04-19 08:12:00,
2013-04-19 03:21:00,27.0,21.0,30.06,NW,317,0.0,5.0,78,0.00,,,0.02,,2013-04-19 08:21:00,
2013-04-19 03:32:00,27.0,21.0,30.05,WNW,286,3.0,7.0,79,0.00,,,0.02,,2013-04-19 08:32:00,
2013-04-19 03:42:00,27.0,21.0,30.05,WNW,286,3.0,7.0,79,0.00,,,0.02,,2013-04-19 08:42:00,
2013-04-19 03:52:00,26.0,20.0,30.05,NNW,332,1.0,4.0,79,0.00,,,0.02,,2013-04-19 08:52:00,
2013-04-19 04:01:00,26.0,20.0,30.05,NW,305,5.0,10.0,79,0.00,,,0.02,,2013-04-19 09:01:00,
2013-04-19 04:12:00,26.0,20.0,30.05,NW,305,5.0,10.0,79,0.00,,,0.02,,2013-04-19 09:12:00,
2013-04-19 04:21:00,26.0,20.0,30.05,WNW,291,5.0,10.0,79,0.00,,,0.02,,2013-04-19 09:21:00,
2013-04-19 04:32:00,26.0,20.0,30.05,WNW,294,4.0,8.0,79,0.00,,,0.02,,2013-04-19 09:32:00,
2013-04-19 04:42:00,26.0,20.0,30.05,WNW,294,4.0,8.0,79,0.00,,,0.02,,2013-04-19 09:42:00,
2013-04-19 04:52:00,26.0,21.0,30.05,NW,304,3.0,7.0,80,0.00,,,0.02,,2013-04-19 09:52:00,
2013-04-19 05:02:00,26.0,21.0,30.05,NW,305,2.0,5.0,80,0.00,,,0.02,,2013-04-19 10:02:00,
2013-04-19 05:13:00,25.0,20.0,30.05,WNW,302,1.0,3.0,80,0.00,,,0.02,,2013-04-19 10:13:00,
2013-04-19 05:23:00,25.0,20.0,30.05,WNW,302,1.0,3.0,80,0.00,,,0.02,,2013-04-19 10:23:00,
2013-04-19 05:33:00,26.0,21.0,30.05,WNW,296,2.0,4.0,82,0.00,,,0.02,,2013-04-19 10:33:00,
2013-04-19 05:42:00,26.0,21.0,30.05,WNW,296,2.0,4.0,82,0.00,,,0.02,,2013-04-19 10:42:00,
2013-04-19 05:52:00,26.0,21.0,30.04,WNW,291,1.0,5.0,81,0.00,,,0.02,,2013-04-19 10:52:00,
2013-04-19 06:02:00,26.0,21.0,30.03,WNW,294,0.0,3.0,82,0.00,,,0.02,,2013-04-19 11:02:00,
2013-04-19 06:11:00,26.0,21.0,30.03,WNW,294,0.0,3.0,82,0.00,,,0.02,,2013-04-19 11:11:00,
2013-04-19 06:22:00,26.0,21.0,30.03,WNW,294,1.0,3.0,81,0.00,,,0.02,,2013-04-19 11:22:00,
2013-04-19 06:32:00,25.0,20.0,30.03,WNW,298,3.0,6.0,82,0.00,,,0.02,,2013-04-19 11:32:00,
2013-04-19 06:42:00,25.0,20.0,30.03,WNW,298,3.0,6.0,82,0.00,,,0.02,,2013-04-19 11:42:00,
2013-04-19 06:52:00,25.0,20.0,30.03,WNW,289,1.0,5.0,82,0.00,,,0.02,,2013-04-19 11:52:00,
2013-04-19 07:03:00,25.0,21.0,30.03,WNW,301,3.0,6.0,83,0.00,,,0.02,,2013-04-19 12:03:00,
2013-04-19 07:12:00,25.0,21.0,30.03,WNW,301,3.0,6.0,83,0.00,,,0.02,,2013-04-19 12:12:00,
2013-04-19 07:22:00,25.0,21.0,30.03,NW,304,2.0,5.0,83,0.00,,,0.02,,2013-04-19 12:22:00,
2013-04-19 07:32:00,26.0,22.0,30.03,WNW,297,0.0,4.0,84,0.00,,,0.02,,2013-04-19 12:32:00,
2013-04-19 07:42:00,26.0,22.0,30.03,WNW,297,0.0,4.0,84,0.00,,,0.02,,2013-04-19 12:42:00,
2013-04-19 07:52:00,27.0,22.0,30.02,WNW,292,0.0,4.0,82,0.00,,,0.02,,2013-04-19 12:52:00,
2013-04-19 08:01:00,28.0,23.0,30.03,WNW,292,0.0,0.0,81,0.00,,,0.02,,2013-04-19 13:01:00,
2013-04-19 08:11:00,28.0,23.0,30.03,WNW,292,0.0,0.0,81,0.00,,,0.02,,2013-04-19 13:11:00,
2013-04-19 08:21:00,28.0,23.0,30.03,WNW,292,0.0,3.0,81,0.00,,,0.02,,2013-04-19 13:21:00,
2013-04-19 08:32:00,29.0,24.0,30.03,WNW,298,2.0,4.0,81,0.00,,,0.02,,2013-04-19 13:32:00,
2013-04-19 08:42:00,29.0,24.0,30.03,WNW,298,2.0,4.0,81,0.00,,,0.02,,2013-04-19 13:42:00,
2013-04-19 08:52:00,30.0,25.0,30.03,WNW,286,3.0,5.0,81,0.00,,,0.02,,2013-04-19 13:52:00,
2013-04-19 09:02:00,31.0,26.0,30.03,NW,312,4.0,7.0,80,0.00,,,0.02,,2013-04-19 14:02:00,
2013-04-19 09:11:00,31.0,26.0,30.03,NW,312,4.0,7.0,80,0.00,,,0.02,,2013-04-19 14:11:00,
2013-04-19 09:22:00,32.0,26.0,30.04,WNW,295,4.0,8.0,78,0.00,,,0.02,,2013-04-19 14:22:00,
2013-04-19 09:32:00,34.0,27.0,30.03,NW,309,5.0,8.0,75,0.00,,,0.02,,2013-04-19 14:32:00,
2013-04-19 09:42:00,34.0,27.0,30.03,NW,309,5.0,8.0,75,0.00,,,0.02,,2013-04-19 14:42:00,
2013-04-19 09:52:00,37.0,27.0,30.03,WNW,294,7.0,10.0,68,0.00,,,0.02,,2013-04-19 14:52:00,
2013-04-19 10:01:00,37.0,26.0,30.04,NW,309,7.0,14.0,65,0.00,,,0.02,,2013-04-19 15:01:00,
2013-04-19 10:12:00,37.0,26.0,30.04,NW,309,7.0,14.0,65,0.00,,,0.02,,2013-04-19 15:12:00,
2013-04-19 10:21:00,38.0,28.0,30.04,NW,305,6.0,13.0,66,0.00,,,0.02,,2013-04-19 15:21:00,
2013-04-19 10:33:00,39.0,28.0,30.04,North,355,4.0,12.0,64,0.00,,,0.02,,2013-04-19 15:33:00,
2013-04-19 10:43:00,39.0,28.0,30.04,North,355,4.0,12.0,64,0.00,,,0.02,,2013-04-19 15:43:00,
2013-04-19 10:52:00,41.0,29.0,30.04,WNW,294,7.0,13.0,63,0.00,,,0.02,,2013-04-19 15:52:00,
2013-04-19 11:03:00,42.0,29.0,30.04,North,10,9.0,14.0,60,0.00,,,0.02,,2013-04-19 16:03:00,
2013-04-19 11:13:00,42.0,29.0,30.04,North,10,9.0,14.0,60,0.00,,,0.02,,2013-04-19 16:13:00,
2013-04-19 11:23:00,43.0,30.0,30.03,NNE,22,12.0,19.0,61,0.00,,,0.02,,2013-04-19 16:23:00,
2013-04-19 11:32:00,44.0,32.0,30.03,NNE,17,11.0,18.0,62,0.00,,,0.02,,2013-04-19 16:32:00,
2013-04-19 11:42:00,44.0,32.0,30.03,NNE,17,11.0,18.0,62,0.00,,,0.02,,2013-04-19 16:42:00,
2013-04-19 11:52:00,44.0,32.0,30.03,NNE,13,10.0,21.0,62,0.00,,,0.02,,2013-04-19 16:52:00,
2013-04-19 12:02:00,45.0,31.0,30.03,North,360,10.0,19.0,58,0.00,,,0.02,,2013-04-19 17:02:00,
2013-04-19 12:12:00,45.0,31.0,30.03,North,360,10.0,19.0,58,0.00,,,0.02,,2013-04-19 17:12:00,
2013-04-19 12:21:00,46.0,31.0,30.04,NNW,340,11.0,22.0,56,0.00,,,0.02,,2013-04-19 17:21:00,
2013-04-19 12:33:00,46.0,31.0,30.04,North,360,12.0,23.0,55,0.00,,,0.02,,2013-04-19 17:33:00,
2013-04-19 12:42:00,46.0,31.0,30.04,North,360,12.0,23.0,55,0.00,,,0.02,,2013-04-19 17:42:00,
2013-04-19 12:52:00,46.0,30.0,30.05,NW,324,13.0,21.0,53,0.00,,,0.02,,2013-04-19 17:52:00,
2013-04-19 13:02:00,47.0,31.0,30.04,NNW,344,9.0,20.0,54,0.00,,,0.02,,2013-04-19 18:02:00,
2013-04-19 13:13:00,47.0,31.0,30.04,NNW,344,9.0,20.0,54,0.00,,,0.02,,2013-04-19 18:13:00,
2013-04-19 13:23:00,46.0,29.0,30.04,NNE,16,11.0,21.0,51,0.00,,,0.01,,2013-04-19 18:23:00,
2013-04-19 13:33:00,47.0,29.0,30.04,North,5,11.0,19.0,50,0.00,,,0.01,,2013-04-19 18:33:00,
2013-04-19 13:43:00,47.0,29.0,30.04,North,5,11.0,19.0,50,0.00,,,0.01,,2013-04-19 18:43:00,
2013-04-19 13:52:00,48.0,31.0,30.04,North,5,10.0,18.0,51,0.00,,,0.01,,2013-04-19 18:52:00,
2013-04-19 14:02:00,48.0,31.0,30.04,NNW,327,9.0,19.0,51,0.00,,,0.01,,2013-04-19 19:02:00,
2013-04-19 14:11:00,48.0,31.0,30.04,NNW,327,9.0,19.0,51,0.00,,,0.01,,2013-04-19 19:11:00,
2013-04-19 14:21:00,46.0,29.0,30.04,NNW,348,7.0,16.0,52,0.00,,,0.00,,2013-04-19 19:21:00,
2013-04-19 14:32:00,47.0,30.0,30.04,NNE,17,10.0,17.0,52,0.00,,,0.00,,2013-04-19 19:32:00,
2013-04-19 14:42:00,47.0,30.0,30.04,NNE,17,10.0,17.0,52,0.00,,,0.00,,2013-04-19 19:42:00,
2013-04-19 14:52:00,47.0,30.0,30.04,NNE,12,10.0,15.0,52,0.00,,,0.00,,2013-04-19 19:52:00,
2013-04-19 15:02:00,49.0,31.0,30.03,North,360,7.0,16.0,49,0.00,,,0.00,,2013-04-19 20:02:00,
2013-04-19 15:11:00,49.0,31.0,30.03,North,360,7.0,16.0,49,0.00,,,0.00,,2013-04-19 20:11:00,
2013-04-19 15:22:00,49.0,31.0,30.03,North,350,9.0,17.0,49,0.00,,,0.00,,2013-04-19 20:22:00,
2013-04-19 15:32:00,48.0,30.0,30.03,North,5,9.0,16.0,49,0.00,,,0.00,,2013-04-19 20:32:00,
2013-04-19 15:42:00,48.0,30.0,30.03,North,5,9.0,16.0,49,0.00,,,0.00,,2013-04-19 20:42:00,
2013-04-19 15:51:00,48.0,30.0,30.03,NNE,14,9.0,18.0,50,0.00,,,0.00,,2013-04-19 20:51:00,
2013-04-19 16:01:00,48.0,30.0,30.03,NNE,22,9.0,16.0,49,0.00,,,0.00,,2013-04-19 21:01:00,
2013-04-19 16:11:00,48.0,31.0,30.03,NNE,15,6.0,13.0,51,0.00,,,0.00,,2013-04-19 21:11:00,
2013-04-19 16:21:00,48.0,31.0,30.03,NNE,15,6.0,13.0,51,0.00,,,0.00,,2013-04-19 21:21:00,
2013-04-19 16:32:00,48.0,32.0,30.03,NNE,21,7.0,14.0,53,0.00,,,0.00,,2013-04-19 21:32:00,
2013-04-19 16:42:00,48.0,32.0,30.03,NNE,21,7.0,14.0,53,0.00,,,0.00,,2013-04-19 21:42:00,
2013-04-19 16:52:00,49.0,32.0,30.03,NNE,28,7.0,17.0,52,0.00,,,0.00,,2013-04-19 21:52:00,
2013-04-19 17:02:00,48.0,31.0,30.03,North,355,6.0,14.0,52,0.00,,,0.00,,2013-04-19 22:02:00,
2013-04-19 17:12:00,48.0,31.0,30.03,North,355,6.0,14.0,52,0.00,,,0.00,,2013-04-19 22:12:00,
2013-04-19 17:22:00,49.0,32.0,30.03,NNE,18,9.0,15.0,52,0.00,,,0.00,,2013-04-19 22:22:00,
2013-04-19 17:33:00,49.0,32.0,30.02,NNE,19,7.0,12.0,52,0.00,,,0.00,,2013-04-19 22:33:00,
2013-04-19 17:42:00,49.0,32.0,30.02,NNE,19,7.0,12.0,52,0.00,,,0.00,,2013-04-19 22:42:00,
2013-04-19 17:52:00,49.0,32.0,30.02,NNE,17,7.0,14.0,52,0.00,,,0.00,,2013-04-19 22:52:00,
2013-04-19 18:03:00,49.0,33.0,30.02,NNE,26,6.0,13.0,53,0.00,,,0.00,,2013-04-19 23:03:00,
2013-04-19 18:11:00,49.0,33.0,30.02,NNE,26,6.0,13.0,53,0.00,,,0.00,,2013-04-19 23:11:00,
2013-04-19 18:22:00,49.0,33.0,30.02,NNE,13,5.0,11.0,54,0.00,,,0.00,,2013-04-19 23:22:00,
2013-04-19 18:32:00,49.0,32.0,30.03,NE,39,6.0,12.0,52,0.00,,,0.00,,2013-04-19 23:32:00,
2013-04-19 18:42:00,49.0,32.0,30.03,NE,39,6.0,12.0,52,0.00,,,0.00,,2013-04-19 23:42:00,
2013-04-19 18:52:00,49.0,32.0,30.03,NE,55,4.0,10.0,52,0.00,,,0.00,,2013-04-19 23:52:00,
2013-04-19 19:02:00,48.0,31.0,30.03,NE,37,8.0,13.0,52,0.00,,,0.00,,2013-04-20 00:02:00,
2013-04-19 19:12:00,48.0,31.0,30.03,NE,37,8.0,13.0,52,0.00,,,0.00,,2013-04-20 00:12:00,
2013-04-19 19:21:00,48.0,32.0,30.03,NE,54,4.0,10.0,53,0.00,,,0.00,,2013-04-20 00:21:00,
2013-04-19 19:32:00,48.0,32.0,30.03,NNE,17,6.0,9.0,53,0.00,,,0.00,,2013-04-20 00:32:00,
2013-04-19 19:42:00,48.0,32.0,30.03,NNE,17,6.0,9.0,53,0.00,,,0.00,,2013-04-20 00:42:00,
2013-04-19 19:51:00,47.0,31.0,30.03,North,5,4.0,10.0,54,0.00,,,0.00,,2013-04-20 00:51:00,
2013-04-19 20:01:00,47.0,31.0,30.03,NNE,30,4.0,8.0,54,0.00,,,0.00,,2013-04-20 01:01:00,
2013-04-19 20:11:00,47.0,31.0,30.03,NNE,30,4.0,8.0,54,0.00,,,0.00,,2013-04-20 01:11:00,
2013-04-19 20:21:00,46.0,31.0,30.03,NE,37,2.0,8.0,56,0.00,,,0.00,,2013-04-20 01:21:00,
2013-04-19 20:32:00,45.0,31.0,30.03,NE,56,2.0,6.0,58,0.00,,,0.00,,2013-04-20 01:32:00,
2013-04-19 20:42:00,45.0,31.0,30.03,NE,56,2.0,6.0,58,0.00,,,0.00,,2013-04-20 01:42:00,
2013-04-19 20:52:00,44.0,31.0,30.03,North,11,2.0,10.0,59,0.00,,,0.00,,2013-04-20 01:52:00,
2013-04-19 21:01:00,43.0,30.0,30.04,ENE,76,0.0,4.0,59,0.00,,,0.00,,2013-04-20 02:01:00,
2013-04-19 21:11:00,43.0,30.0,30.04,ENE,76,0.0,4.0,59,0.00,,,0.00,,2013-04-20 02:11:00,
2013-04-19 21:21:00,42.0,30.0,30.04,ESE,120,0.0,2.0,62,0.00,,,0.00,,2013-04-20 02:21:00,
2013-04-19 21:32:00,41.0,30.0,30.04,ESE,113,0.0,3.0,64,0.00,,,0.00,,2013-04-20 02:32:00,
2013-04-19 21:42:00,41.0,30.0,30.04,ESE,113,0.0,3.0,64,0.00,,,0.00,,2013-04-20 02:42:00,
2013-04-19 21:52:00,41.0,29.0,30.05,ESE,111,0.0,3.0,63,0.00,,,0.00,,2013-04-20 02:52:00,
2013-04-19 22:01:00,41.0,29.0,30.05,East,83,1.0,5.0,63,0.00,,,0.00,,2013-04-20 03:01:00,
2013-04-19 22:11:00,41.0,29.0,30.05,East,83,1.0,5.0,63,0.00,,,0.00,,2013-04-20 03:11:00,
2013-04-19 22:21:00,40.0,29.0,30.06,SE,138,0.0,3.0,65,0.00,,,0.00,,2013-04-20 03:21:00,
2013-04-19 22:33:00,39.0,28.0,30.06,SE,139,1.0,5.0,65,0.00,,,0.00,,2013-04-20 03:33:00,
2013-04-19 22:43:00,39.0,28.0,30.06,SE,139,1.0,5.0,65,0.00,,,0.00,,2013-04-20 03:43:00,
2013-04-19 22:52:00,38.0,28.0,30.06,SE,141,0.0,3.0,68,0.00,,,0.00,,2013-04-20 03:52:00,
2013-04-19 23:03:00,37.0,28.0,30.06,SE,141,0.0,3.0,69,0.00,,,0.00,,2013-04-20 04:03:00,
2013-04-19 23:12:00,37.0,28.0,30.06,SE,141,0.0,3.0,69,0.00,,,0.00,,2013-04-20 04:12:00,
2013-04-19 23:23:00,38.0,28.0,30.06,SE,141,0.0,2.0,68,0.00,,,0.00,,2013-04-20 04:23:00,
2013-04-19 23:32:00,37.0,28.0,30.06,SE,141,0.0,3.0,71,0.00,,,0.00,,2013-04-20 04:32:00,
2013-04-19 23:42:00,37.0,28.0,30.06,SE,141,0.0,3.0,71,0.00,,,0.00,,2013-04-20 04:42:00,
2013-04-19 23:52:00,36.0,29.0,30.05,SE,141,0.0,3.0,74,0.00,,,0.00,,2013-04-20 04:52:00,